Time;durP1;ratioP1;P1;durP2;ratioP2;P2;SDS_P1;SDS_P2;PMS_P1;PMS_P2;Temp;Humidity;BMP_temperature;BMP_pressure;BME280_temperature;BME280_humidity;BME280_pressure;Samples;Min_cycle;Max_cycle;Signal;HPM_P1;HPM_P2
2023/06/30 00:01:48;;;;;;;5.38;4.47;;;;;;;18.91;86.80;99156.44;5095019;28;20032;-82
2023/06/30 00:04:18;;;;;;;5.45;4.82;;;;;;;19.17;87.08;99201.63;5094487;28;20471;-82
2023/06/30 00:06:50;;;;;;;9.02;5.28;;;;;;;19.24;87.02;99205.41;5094652;28;20035;-83
2023/06/30 00:09:19;;;;;;;5.72;4.60;;;;;;;19.10;86.94;99179.41;5094497;28;20032;-83
2023/06/30 00:11:45;;;;;;;5.90;4.78;;;;;;;19.10;87.21;99185.53;5094489;28;20028;-83
2023/06/30 00:14:10;;;;;;;6.18;5.45;;;;;;;19.06;87.09;99180.66;5094619;28;20429;-83
2023/06/30 00:16:35;;;;;;;6.63;4.80;;;;;;;19.28;87.13;99211.25;5093013;28;20115;-84
2023/06/30 00:19:02;;;;;;;9.18;5.35;;;;;;;19.20;87.89;99198.72;5094445;28;20117;-85
2023/06/30 00:21:28;;;;;;;5.05;4.53;;;;;;;19.23;88.12;99208.19;5094181;28;20410;-85
2023/06/30 00:23:53;;;;;;;6.20;4.85;;;;;;;19.05;87.99;99181.63;5094171;28;20034;-85
2023/06/30 00:26:18;;;;;;;5.38;4.68;;;;;;;19.03;88.35;99179.13;5094059;28;20031;-85
2023/06/30 00:28:44;;;;;;;6.40;4.95;;;;;;;19.10;88.49;99195.25;5094484;28;20024;-84
2023/06/30 00:31:09;;;;;;;5.47;4.88;;;;;;;19.18;88.08;99211.25;5092950;28;20036;-85
2023/06/30 00:33:35;;;;;;;7.07;4.95;;;;;;;19.17;87.91;99204.28;5093774;28;20058;-85
2023/06/30 00:36:00;;;;;;;6.88;5.00;;;;;;;19.12;88.47;99193.28;5093960;28;20081;-85
2023/06/30 00:38:26;;;;;;;6.28;4.82;;;;;;;18.99;88.70;99171.59;5093621;28;20498;-85
2023/06/30 00:40:51;;;;;;;6.80;4.95;;;;;;;18.97;89.04;99173.56;5093843;28;20027;-84
2023/06/30 00:43:16;;;;;;;6.13;4.70;;;;;;;19.01;88.43;99188.16;5093988;28;20099;-84
2023/06/30 00:45:42;;;;;;;6.13;5.20;;;;;;;19.05;88.54;99190.38;5093545;28;20107;-85
2023/06/30 00:48:07;;;;;;;7.15;5.30;;;;;;;18.82;89.09;99159.91;5093979;28;20020;-85
2023/06/30 00:50:33;;;;;;;7.05;4.72;;;;;;;18.90;89.05;99168.81;5093664;28;20103;-83
2023/06/30 00:52:59;;;;;;;6.05;4.65;;;;;;;18.89;89.25;99171.59;5093884;28;20024;-83
2023/06/30 00:55:25;;;;;;;5.47;4.90;;;;;;;18.85;88.72;99154.38;5093157;28;20020;-82
2023/06/30 00:57:51;;;;;;;5.40;4.72;;;;;;;18.85;89.54;99155.19;5093684;28;20020;-83
2023/06/30 01:00:17;;;;;;;6.18;4.78;;;;;;;19.01;89.57;99177.59;5093540;28;20180;-85
2023/06/30 01:02:56;;;;;;;6.80;4.95;;;;;;;18.90;89.79;99154.78;5093587;28;20573;-84
2023/06/30 01:05:34;;;;;;;6.82;5.22;;;;;;;18.79;89.99;99141.69;5093534;28;20403;-85
2023/06/30 01:08:08;;;;;;;5.28;4.78;;;;;;;18.95;89.83;99169.22;5093163;28;20032;-83
2023/06/30 01:10:34;;;;;;;5.95;5.00;;;;;;;18.91;89.86;99153.81;5093127;28;20638;-85
2023/06/30 01:13:02;;;;;;;6.25;5.22;;;;;;;18.81;89.55;99130.06;5093520;28;20635;-82
2023/06/30 01:15:28;;;;;;;6.63;5.40;;;;;;;18.95;89.14;99158.69;5093007;28;20028;-83
2023/06/30 01:17:59;;;;;;;7.10;5.60;;;;;;;18.91;90.08;99152.00;5093183;28;20028;-83
2023/06/30 01:20:30;;;;;;;6.00;5.22;;;;;;;18.74;90.22;99136.00;5092726;28;20471;-83
2023/06/30 01:23:37;;;;;;;6.93;5.47;;;;;;;18.84;90.13;99152.72;5093103;28;20486;-82
2023/06/30 01:26:03;;;;;;;7.68;5.40;;;;;;;18.69;90.38;99129.34;5073663;28;20036;-83
2023/06/30 01:28:29;;;;;;;7.07;5.28;;;;;;;18.83;90.30;99154.47;5073527;28;20412;-83
2023/06/30 01:30:56;;;;;;;9.48;5.85;;;;;;;18.76;90.90;99142.81;5090385;28;20044;-83
2023/06/30 01:33:22;;;;;;;6.10;5.38;;;;;;;18.73;90.90;99143.09;5090338;28;20032;-83
2023/06/30 01:35:47;;;;;;;5.90;5.30;;;;;;;18.75;90.67;99142.94;5090008;28;20202;-82
2023/06/30 01:38:13;;;;;;;6.75;6.07;;;;;;;18.76;90.69;99145.47;5090691;28;20085;-82
2023/06/30 01:40:39;;;;;;;7.20;6.03;;;;;;;18.70;91.37;99132.81;5090207;28;20430;-83
2023/06/30 01:43:05;;;;;;;6.18;5.57;;;;;;;18.62;91.17;99122.06;5090369;28;20066;-83
2023/06/30 01:45:31;;;;;;;8.05;5.95;;;;;;;18.62;92.38;99124.69;5090073;28;20394;-83
2023/06/30 01:47:57;;;;;;;5.18;4.65;;;;;;;18.62;91.46;99128.16;5073199;28;20461;-83
2023/06/30 01:50:24;;;;;;;7.93;5.45;;;;;;;18.55;91.64;99116.50;5090139;28;20468;-83
2023/06/30 01:52:49;;;;;;;6.72;6.00;;;;;;;18.45;91.43;99105.09;5073089;28;20028;-83
2023/06/30 01:55:16;;;;;;;5.63;5.13;;;;;;;18.49;91.55;99109.13;5090012;28;20039;-83
2023/06/30 01:57:41;;;;;;;7.80;6.10;;;;;;;18.53;91.64;99115.78;5089840;28;20034;-83
2023/06/30 02:00:07;;;;;;;6.43;5.32;;;;;;;18.51;91.80;99109.00;5090036;28;20111;-83
2023/06/30 02:02:32;;;;;;;6.63;5.15;;;;;;;18.59;91.58;99127.63;5091039;28;20132;-83
2023/06/30 02:04:58;;;;;;;8.02;6.13;;;;;;;18.64;91.37;99141.25;5092108;28;20028;-83
2023/06/30 02:07:23;;;;;;;5.93;5.32;;;;;;;18.46;92.23;99098.88;5092316;28;20503;-83
2023/06/30 02:09:49;;;;;;;6.40;5.28;;;;;;;18.45;91.68;99091.91;5092453;28;20040;-83
2023/06/30 02:12:15;;;;;;;5.68;4.80;;;;;;;18.44;91.54;99090.25;5092267;28;20070;-83
2023/06/30 02:14:41;;;;;;;5.75;5.15;;;;;;;18.59;91.22;99109.16;5091925;28;20042;-83
2023/06/30 02:17:08;;;;;;;8.05;5.55;;;;;;;18.74;91.82;99122.81;5092382;28;20024;-82
2023/06/30 02:19:34;;;;;;;6.72;5.78;;;;;;;18.72;91.73;99119.50;5090504;28;20064;-83
2023/06/30 02:21:59;;;;;;;7.68;5.32;;;;;;;18.66;91.44;99105.00;5091976;28;20066;-85
2023/06/30 02:24:25;;;;;;;11.05;5.47;;;;;;;18.77;91.70;99120.75;5092042;28;20028;-85
2023/06/30 02:26:50;;;;;;;5.80;4.60;;;;;;;18.68;91.35;99105.72;5091811;28;20024;-85
2023/06/30 02:29:15;;;;;;;5.53;4.75;;;;;;;18.64;91.39;99099.03;5091867;28;20364;-82
2023/06/30 02:31:41;;;;;;;7.20;4.80;;;;;;;18.77;91.31;99117.28;5092136;28;20054;-82
2023/06/30 02:34:06;;;;;;;5.25;4.65;;;;;;;18.78;91.34;99114.50;5091823;28;20051;-82
2023/06/30 02:36:31;;;;;;;6.50;4.82;;;;;;;18.79;91.02;99121.44;5091675;28;20065;-82
2023/06/30 02:38:57;;;;;;;5.15;4.45;;;;;;;18.59;91.28;99080.16;5092097;28;20031;-83
2023/06/30 02:41:23;;;;;;;6.32;5.45;;;;;;;18.72;91.10;99098.38;5092082;28;20031;-83
2023/06/30 02:43:48;;;;;;;5.43;4.93;;;;;;;18.85;90.85;99109.50;5091700;28;20478;-83
2023/06/30 02:46:13;;;;;;;7.88;4.90;;;;;;;18.65;91.11;99075.16;5091952;28;20110;-83
2023/06/30 02:48:39;;;;;;;7.50;5.05;;;;;;;18.78;91.57;99101.28;5091934;28;20107;-83
2023/06/30 02:51:04;;;;;;;6.57;5.18;;;;;;;18.89;91.65;99108.28;5091817;28;20110;-83
2023/06/30 02:53:29;;;;;;;5.45;4.95;;;;;;;18.75;91.44;99085.78;5091562;28;20406;-82
2023/06/30 02:55:55;;;;;;;7.65;5.47;;;;;;;18.88;91.05;99098.69;5090317;28;20043;-82
2023/06/30 02:58:22;;;;;;;7.30;5.57;;;;;;;18.87;91.93;99099.63;5091552;28;20060;-83
2023/06/30 03:00:48;;;;;;;7.00;5.60;;;;;;;18.75;91.40;99085.78;5091611;28;20031;-82
2023/06/30 03:03:13;;;;;;;6.63;5.18;;;;;;;18.90;91.71;99102.84;5091967;28;20028;-82
2023/06/30 03:05:38;;;;;;;5.95;4.97;;;;;;;18.80;91.16;99080.06;5091748;28;20051;-82
2023/06/30 03:08:04;;;;;;;8.88;5.28;;;;;;;18.89;90.94;99095.06;5091746;28;20020;-82
2023/06/30 03:10:29;;;;;;;5.80;4.93;;;;;;;18.93;91.30;99099.09;5091464;28;20483;-83
2023/06/30 03:12:55;;;;;;;5.60;5.07;;;;;;;18.81;91.38;99079.09;5091855;28;20031;-82
2023/06/30 03:15:20;;;;;;;5.72;4.75;;;;;;;18.82;91.42;99067.56;5091783;28;20028;-82
2023/06/30 03:17:46;;;;;;;5.88;5.13;;;;;;;19.00;91.77;99092.28;5093537;28;20067;-83
2023/06/30 03:20:12;;;;;;;6.90;4.95;;;;;;;19.00;92.39;99094.09;5095803;28;20047;-83
2023/06/30 03:22:39;;;;;;;5.55;4.80;;;;;;;18.87;93.19;99074.09;5095325;28;20059;-83
2023/06/30 03:25:05;;;;;;;7.38;4.90;;;;;;;18.87;93.05;99065.34;5095485;28;20032;-82
2023/06/30 03:27:30;;;;;;;7.18;5.20;;;;;;;18.99;93.78;99084.50;5094904;28;20028;-82
2023/06/30 03:29:55;;;;;;;5.90;4.90;;;;;;;18.82;93.87;99054.38;5095430;28;20099;-83
2023/06/30 03:32:21;;;;;;;7.13;4.93;;;;;;;18.89;94.20;99064.25;5095347;28;20028;-82
2023/06/30 03:34:46;;;;;;;7.05;5.13;;;;;;;18.90;94.47;99059.78;5093551;28;20558;-82
2023/06/30 03:37:12;;;;;;;5.93;5.35;;;;;;;18.80;94.61;99041.34;5095093;28;20391;-83
2023/06/30 03:39:38;;;;;;;6.03;5.00;;;;;;;18.91;94.80;99061.44;5094819;28;20024;-83
2023/06/30 03:42:04;;;;;;;9.35;5.80;;;;;;;18.99;94.35;99079.25;5094812;28;20109;-83
2023/06/30 03:44:29;;;;;;;7.10;5.22;;;;;;;19.03;95.16;99084.09;5094960;28;20077;-83
2023/06/30 03:46:54;;;;;;;5.20;4.70;;;;;;;19.02;95.29;99086.88;5094919;28;20023;-83
2023/06/30 03:49:20;;;;;;;5.80;4.72;;;;;;;19.03;94.67;99078.00;5093846;28;20024;-83
2023/06/30 03:51:45;;;;;;;7.10;5.47;;;;;;;18.95;95.29;99068.13;5094698;28;20499;-83
2023/06/30 03:54:11;;;;;;;7.15;5.45;;;;;;;18.80;96.54;99046.59;5094854;28;20032;-83
2023/06/30 03:56:36;;;;;;;5.78;5.05;;;;;;;18.99;96.43;99073.97;5093262;28;20027;-83
2023/06/30 03:59:01;;;;;;;7.55;5.00;;;;;;;18.90;96.06;99057.97;5093756;28;20028;-83
2023/06/30 04:01:27;;;;;;;5.88;4.80;;;;;;;18.92;95.99;99061.34;5094711;28;20089;-85
2023/06/30 04:03:52;;;;;;;7.57;5.15;;;;;;;19.09;95.72;99080.91;5094837;28;20035;-85
2023/06/30 04:06:17;;;;;;;8.25;5.15;;;;;;;18.92;96.91;99048.13;5094763;28;20028;-85
2023/06/30 04:08:44;;;;;;;6.22;5.43;;;;;;;18.95;96.52;99053.13;5094281;28;20620;-85
2023/06/30 04:11:09;;;;;;;6.00;5.10;;;;;;;19.05;95.97;99070.78;5094462;28;20055;-85
2023/06/30 04:13:35;;;;;;;5.25;4.78;;;;;;;19.08;95.81;99070.47;5094420;28;20059;-85
2023/06/30 04:16:00;;;;;;;5.95;5.35;;;;;;;18.93;94.80;99055.06;5094410;28;20024;-85
2023/06/30 04:18:27;;;;;;;5.43;4.88;;;;;;;19.04;94.30;99071.72;5094489;28;20034;-85
2023/06/30 04:20:52;;;;;;;5.95;4.93;;;;;;;19.03;96.22;99062.16;5094164;28;20021;-83
2023/06/30 04:23:17;;;;;;;6.28;5.07;;;;;;;19.00;96.16;99059.78;5094148;28;20031;-83
2023/06/30 04:25:43;;;;;;;9.23;6.03;;;;;;;19.09;94.60;99080.09;5093900;28;20031;-82
2023/06/30 04:28:08;;;;;;;7.85;5.43;;;;;;;19.03;93.53;99065.63;5093774;28;20032;-82
2023/06/30 04:30:33;;;;;;;7.22;5.65;;;;;;;19.16;94.24;99078.53;5094085;28;20028;-83
2023/06/30 04:32:59;;;;;;;8.27;5.88;;;;;;;19.17;94.65;99081.06;5094180;28;20020;-82
2023/06/30 04:35:25;;;;;;;7.65;6.38;;;;;;;18.98;94.49;99062.56;5092432;28;20044;-83
2023/06/30 04:37:51;;;;;;;8.43;5.82;;;;;;;19.07;94.22;99068.81;5093660;28;20040;-83
2023/06/30 04:40:16;;;;;;;8.50;5.60;;;;;;;19.12;92.92;99064.78;5092490;28;20043;-83
2023/06/30 04:42:42;;;;;;;6.25;5.20;;;;;;;19.07;92.92;99058.25;5093927;28;20020;-83
2023/06/30 04:45:07;;;;;;;7.82;6.00;;;;;;;18.88;92.70;99024.81;5093772;28;20024;-83
2023/06/30 04:47:33;;;;;;;10.02;5.93;;;;;;;18.91;92.58;99041.16;5093960;28;20020;-82
2023/06/30 04:49:58;;;;;;;8.50;5.78;;;;;;;18.90;93.24;99036.03;5093652;28;20501;-83
2023/06/30 04:52:23;;;;;;;8.90;5.97;;;;;;;19.08;93.33;99065.19;5093834;28;20073;-83
2023/06/30 04:54:49;;;;;;;9.43;6.03;;;;;;;18.89;92.90;99042.31;5093739;28;20110;-83
2023/06/30 04:57:14;;;;;;;9.75;5.68;;;;;;;18.97;92.71;99052.16;5093630;28;20028;-82
2023/06/30 04:59:39;;;;;;;7.68;6.07;;;;;;;19.06;93.62;99056.59;5092816;28;20027;-84
2023/06/30 05:02:05;;;;;;;7.20;5.80;;;;;;;19.04;93.56;99050.63;5094299;28;20032;-85
2023/06/30 05:04:31;;;;;;;5.80;5.20;;;;;;;19.01;93.46;99050.91;5094156;28;20156;-85
2023/06/30 05:06:57;;;;;;;6.40;5.60;;;;;;;19.10;93.31;99063.28;5093786;28;20089;-85
2023/06/30 05:09:22;;;;;;;9.15;6.88;;;;;;;19.01;93.41;99045.63;5093974;28;20064;-85
2023/06/30 05:11:48;;;;;;;6.05;4.90;;;;;;;19.11;93.08;99049.09;5093600;28;20080;-85
2023/06/30 05:14:13;;;;;;;5.38;4.88;;;;;;;19.11;93.28;99038.53;5093964;28;20024;-85
2023/06/30 05:16:38;;;;;;;6.20;4.93;;;;;;;19.24;93.34;99046.16;5094067;28;20115;-85
2023/06/30 05:19:04;;;;;;;6.00;5.18;;;;;;;19.34;92.69;99054.88;5093747;28;20031;-85
2023/06/30 05:21:29;;;;;;;5.93;5.32;;;;;;;19.38;92.92;99067.69;5093869;28;20051;-85
2023/06/30 05:23:55;;;;;;;7.18;5.57;;;;;;;19.41;92.23;99054.19;5093777;28;20028;-85
2023/06/30 05:26:21;;;;;;;8.52;6.47;;;;;;;19.40;92.11;99064.91;5093575;28;20089;-85
2023/06/30 05:28:46;;;;;;;6.38;5.32;;;;;;;19.20;92.47;99049.06;5093714;28;20032;-86
2023/06/30 05:31:11;;;;;;;8.13;5.70;;;;;;;19.30;92.20;99054.34;5093911;28;20471;-85
2023/06/30 05:33:37;;;;;;;8.45;5.50;;;;;;;19.53;92.95;99080.44;5093546;28;20379;-86
2023/06/30 05:36:02;;;;;;;9.23;6.25;;;;;;;19.50;92.76;99070.16;5093285;28;20086;-85
2023/06/30 05:38:28;;;;;;;5.82;5.20;;;;;;;19.54;92.04;99068.88;5093475;28;20074;-86
2023/06/30 05:40:53;;;;;;;7.50;6.00;;;;;;;19.34;92.33;99029.34;5090891;28;20043;-86
2023/06/30 05:43:19;;;;;;;7.43;6.05;;;;;;;19.49;92.82;99050.84;5093563;28;20024;-86
2023/06/30 05:45:45;;;;;;;8.73;5.80;;;;;;;19.65;92.82;99074.06;5092783;28;20023;-83
2023/06/30 05:48:10;;;;;;;6.70;5.18;;;;;;;19.57;92.67;99040.38;5093157;28;20081;-84
2023/06/30 05:50:35;;;;;;;7.25;5.07;;;;;;;19.76;92.42;99070.38;5093352;28;20055;-85
2023/06/30 05:53:01;;;;;;;6.22;5.63;;;;;;;19.83;92.40;99059.09;5092992;28;20059;-85
2023/06/30 05:55:26;;;;;;;8.38;5.60;;;;;;;20.04;92.18;99077.38;5092867;28;20035;-85
2023/06/30 05:57:52;;;;;;;9.55;6.68;;;;;;;20.15;91.09;99066.63;5091723;28;20034;-85
2023/06/30 06:00:17;;;;;;;6.93;5.50;;;;;;;20.23;89.89;99041.28;5092942;28;20534;-85
2023/06/30 06:02:43;;;;;;;5.80;4.78;;;;;;;20.63;89.42;99065.53;5092955;28;20020;-85
2023/06/30 06:05:08;;;;;;;7.03;5.20;;;;;;;20.73;87.46;99046.97;5093260;28;20028;-85
2023/06/30 06:07:34;;;;;;;5.50;4.88;;;;;;;21.08;87.24;99059.34;5092948;28;20115;-85
2023/06/30 06:09:59;;;;;;;6.07;5.43;;;;;;;21.35;86.05;99044.34;5092301;28;20396;-85
2023/06/30 06:12:25;;;;;;;5.95;4.90;;;;;;;22.16;85.28;99078.44;5092648;28;20452;-84
2023/06/30 06:14:50;;;;;;;7.07;4.85;;;;;;;22.67;80.92;99050.09;5092792;28;20027;-85
2023/06/30 06:17:15;;;;;;;5.18;4.55;;;;;;;23.03;76.79;99060.44;5092896;28;20028;-85
2023/06/30 06:19:41;;;;;;;6.53;4.80;;;;;;;23.53;75.89;99073.53;5092566;28;20028;-85
2023/06/30 06:22:06;;;;;;;5.38;4.03;;;;;;;23.83;75.11;99061.38;5092788;28;20392;-85
2023/06/30 06:24:32;;;;;;;3.92;3.55;;;;;;;24.30;74.17;99070.34;5092460;28;20020;-85
2023/06/30 06:26:58;;;;;;;4.15;3.75;;;;;;;24.59;73.59;99029.78;5092873;28;20024;-85
2023/06/30 06:29:23;;;;;;;4.97;4.30;;;;;;;25.25;72.34;99052.28;5092679;28;20531;-85
2023/06/30 06:31:49;;;;;;;6.13;3.90;;;;;;;26.01;68.70;99068.22;5092513;28;20032;-85
2023/06/30 06:34:16;;;;;;;4.45;3.90;;;;;;;26.64;66.93;99048.06;5092484;28;20113;-85
2023/06/30 06:36:41;;;;;;;4.88;3.17;;;;;;;26.95;63.31;99034.38;5092315;28;20028;-85
2023/06/30 06:39:07;;;;;;;4.45;3.10;;;;;;;27.23;62.33;99030.94;5092690;28;20051;-85
2023/06/30 06:41:32;;;;;;;3.13;2.92;;;;;;;27.93;62.18;99038.00;5092871;28;20024;-85
2023/06/30 06:43:58;;;;;;;3.80;3.25;;;;;;;28.38;61.09;99057.19;5092584;28;20032;-85
2023/06/30 06:46:23;;;;;;;4.63;3.75;;;;;;;28.28;58.22;99044.16;5092616;28;20489;-86
2023/06/30 06:48:48;;;;;;;4.75;3.75;;;;;;;28.55;58.23;99052.28;5091831;28;20110;-84
2023/06/30 06:51:14;;;;;;;5.00;3.13;;;;;;;28.47;58.61;99053.28;5093584;28;20031;-84
2023/06/30 06:53:39;;;;;;;6.55;3.53;;;;;;;28.73;57.95;99060.56;5096440;28;20132;-84
2023/06/30 06:56:05;;;;;;;6.00;3.67;;;;;;;28.86;57.70;99043.69;5094933;28;20024;-84
2023/06/30 06:58:41;;;;;;;5.43;3.40;;;;;;;29.74;57.05;99049.69;5096466;28;20032;-84
2023/06/30 07:01:06;;;;;;;5.75;3.33;;;;;;;29.99;54.02;99057.06;5077105;28;20021;-84
2023/06/30 07:03:31;;;;;;;5.72;3.75;;;;;;;30.45;54.81;99061.47;5076164;28;20035;-84
2023/06/30 07:05:58;;;;;;;8.27;4.00;;;;;;;32.01;53.15;99053.41;5075610;28;20028;-84
2023/06/30 07:08:24;;;;;;;6.47;4.00;;;;;;;33.07;50.48;99040.41;5075607;28;20036;-84
2023/06/30 07:10:50;;;;;;;4.10;3.17;;;;;;;33.99;49.63;99046.06;5075870;28;20165;-84
2023/06/30 07:13:17;;;;;;;4.68;3.25;;;;;;;34.39;48.93;99042.56;5075797;28;20078;-89
2023/06/30 07:15:44;;;;;;;3.45;3.20;;;;;;;33.68;49.46;99014.03;5075053;28;20033;-88
2023/06/30 07:18:10;;;;;;;4.65;3.75;;;;;;;33.06;48.23;99041.47;5076173;28;20036;-89
2023/06/30 07:20:35;;;;;;;5.57;3.35;;;;;;;32.78;49.46;99024.03;5075950;28;20388;-88
2023/06/30 07:23:01;;;;;;;4.07;3.67;;;;;;;33.24;48.07;99018.94;5075398;28;20399;-88
2023/06/30 07:25:26;;;;;;;7.13;3.55;;;;;;;33.45;49.37;99014.88;5076014;28;20414;-91
2023/06/30 07:27:56;;;;;;;4.55;3.60;;;;;;;33.95;48.98;99027.84;5075407;28;20078;-91
2023/06/30 07:30:26;;;;;;;4.63;3.72;;;;;;;33.98;49.32;99003.91;5085914;28;20024;-89
2023/06/30 07:32:52;;;;;;;4.22;3.53;;;;;;;33.93;47.27;99022.69;5093592;28;20495;-89
2023/06/30 07:35:18;;;;;;;3.65;3.30;;;;;;;33.77;48.82;99031.53;5074035;28;20083;-89
2023/06/30 07:37:47;;;;;;;4.55;3.55;;;;;;;32.84;49.21;99019.59;5081016;28;20098;-89
2023/06/30 07:40:14;;;;;;;4.15;3.60;;;;;;;32.28;50.73;99034.25;5094875;28;20032;-89
2023/06/30 07:42:39;;;;;;;4.95;3.90;;;;;;;31.59;52.28;99021.97;5094418;28;20069;-89
2023/06/30 07:45:16;;;;;;;4.88;4.03;;;;;;;30.95;53.48;99032.84;5093876;28;20040;-89
2023/06/30 07:47:43;;;;;;;6.85;4.47;;;;;;;30.26;53.98;99030.97;5092538;28;20493;-89
2023/06/30 07:50:11;;;;;;;5.18;3.72;;;;;;;29.86;55.60;99036.44;5092865;28;20052;-89
2023/06/30 07:52:40;;;;;;;8.70;4.15;;;;;;;29.53;56.24;99020.38;5093067;28;20035;-89
2023/06/30 07:55:05;;;;;;;7.63;3.90;;;;;;;29.26;57.26;99030.34;5092894;28;20024;-89
2023/06/30 07:57:31;;;;;;;6.85;4.28;;;;;;;28.66;58.19;99014.19;5095481;28;20383;-89
2023/06/30 07:59:56;;;;;;;5.30;4.07;;;;;;;28.31;59.37;99029.50;5095051;28;20024;-89
2023/06/30 08:02:21;;;;;;;7.03;4.20;;;;;;;28.01;60.02;99027.13;5093283;28;20020;-89
2023/06/30 08:04:47;;;;;;;5.65;3.90;;;;;;;28.28;61.03;99000.47;5095119;28;20032;-89
2023/06/30 08:07:12;;;;;;;4.25;3.75;;;;;;;29.24;59.83;99008.25;5094402;28;20031;-89
2023/06/30 08:09:38;;;;;;;4.30;3.90;;;;;;;29.72;57.53;99024.94;5095211;28;20387;-89
2023/06/30 08:12:03;;;;;;;6.85;4.57;;;;;;;29.88;58.07;99031.72;5093902;28;20475;-89
2023/06/30 08:14:29;;;;;;;5.85;4.20;;;;;;;29.96;57.96;99009.16;5095667;28;20062;-89
2023/06/30 08:16:54;;;;;;;4.82;3.75;;;;;;;29.79;57.28;99003.44;5093540;28;20369;-89
2023/06/30 08:19:19;;;;;;;5.40;4.38;;;;;;;29.76;57.88;99028.03;5093841;28;20020;-89
2023/06/30 08:21:45;;;;;;;6.15;3.85;;;;;;;29.48;57.69;99012.16;5095688;28;20020;-89
2023/06/30 08:24:10;;;;;;;4.78;3.90;;;;;;;29.27;58.34;99008.66;5094435;28;20046;-89
2023/06/30 08:26:35;;;;;;;6.30;4.00;;;;;;;29.22;58.21;99002.28;5093853;28;20489;-89
2023/06/30 08:29:01;;;;;;;5.43;3.67;;;;;;;29.12;58.60;99008.06;5093442;28;20471;-88
2023/06/30 08:31:26;;;;;;;5.80;3.63;;;;;;;29.05;59.20;99013.41;5094755;28;20028;-88
2023/06/30 08:33:51;;;;;;;4.20;3.70;;;;;;;28.93;59.05;99022.25;5094576;28;20399;-89
2023/06/30 08:36:17;;;;;;;3.63;3.33;;;;;;;28.70;58.51;99020.78;5095120;28;20073;-89
2023/06/30 08:38:42;;;;;;;4.18;3.67;;;;;;;28.62;59.73;99034.38;5094432;28;20024;-89
2023/06/30 08:41:08;;;;;;;6.72;3.85;;;;;;;28.55;60.52;99026.31;5094693;28;20036;-89
2023/06/30 08:43:37;;;;;;;5.13;3.92;;;;;;;28.56;60.84;99019.09;5094624;28;20032;-89
2023/06/30 08:46:03;;;;;;;4.20;3.78;;;;;;;28.61;59.24;99027.34;5093112;28;20039;-89
2023/06/30 08:48:30;;;;;;;12.68;4.53;;;;;;;28.25;59.42;98992.84;5094243;28;20036;-89
2023/06/30 08:50:56;;;;;;;4.18;3.78;;;;;;;28.18;59.63;98983.94;5094244;28;20612;-89
2023/06/30 08:53:23;;;;;;;3.97;3.55;;;;;;;28.28;59.31;99017.38;5094058;28;20665;-89
2023/06/30 08:55:50;;;;;;;4.55;4.05;;;;;;;28.29;59.24;99016.31;5094118;28;20345;-90
2023/06/30 08:58:16;;;;;;;4.07;3.67;;;;;;;28.33;58.55;99014.06;5093967;28;20035;-89
2023/06/30 09:00:41;;;;;;;3.88;3.47;;;;;;;28.29;58.79;99002.13;5092603;28;20020;-88
2023/06/30 09:03:08;;;;;;;4.45;3.47;;;;;;;28.43;59.31;99024.44;5093827;28;20034;-89
2023/06/30 09:05:36;;;;;;;4.93;3.63;;;;;;;28.44;59.83;99024.22;5094166;28;20057;-89
2023/06/30 09:08:10;;;;;;;7.00;3.92;;;;;;;28.32;60.03;98999.88;5093902;28;20115;-89
2023/06/30 09:10:37;;;;;;;5.78;4.30;;;;;;;28.43;60.77;99021.75;5094219;28;20024;-88
2023/06/30 09:13:06;;;;;;;3.95;3.53;;;;;;;28.45;60.71;99017.84;5093831;28;20156;-89
2023/06/30 09:15:32;;;;;;;4.20;3.65;;;;;;;28.48;60.50;99022.78;5091577;28;20059;-89
2023/06/30 09:17:57;;;;;;;4.63;3.03;;;;;;;28.48;59.71;99019.28;5093839;28;20422;-89
2023/06/30 09:20:23;;;;;;;8.18;4.28;;;;;;;28.13;58.03;98999.78;5094123;28;20028;-89
2023/06/30 09:22:48;;;;;;;6.60;3.80;;;;;;;28.13;58.61;99021.22;5094243;28;20521;-88
2023/06/30 09:25:25;;;;;;;4.97;3.75;;;;;;;28.13;59.11;99016.69;5093885;28;20073;-89
2023/06/30 09:27:52;;;;;;;7.10;3.83;;;;;;;28.05;59.85;99023.03;5092545;28;20036;-89
2023/06/30 09:30:17;;;;;;;6.15;3.35;;;;;;;28.06;60.51;99032.72;5091393;28;20051;-89
2023/06/30 09:32:43;;;;;;;4.55;3.13;;;;;;;27.91;61.29;99007.94;5092071;28;20028;-90
2023/06/30 09:35:12;;;;;;;4.35;3.40;;;;;;;27.90;61.33;99013.50;5091852;28;20101;-90
2023/06/30 09:37:41;;;;;;;3.95;3.55;;;;;;;27.80;60.51;99008.50;5093885;28;20058;-90
2023/06/30 09:40:11;;;;;;;5.55;3.60;;;;;;;27.69;61.63;99006.38;5093187;28;20475;-89
2023/06/30 09:42:37;;;;;;;7.65;3.95;;;;;;;27.55;62.11;98997.41;5093225;28;20020;-90
2023/06/30 09:45:02;;;;;;;4.03;3.35;;;;;;;27.48;62.58;99012.63;5092181;28;20039;-92
2023/06/30 09:57:32;;;;;;;6.68;3.80;;;;;;;26.59;62.40;99018.41;5093001;28;20081;-80
2023/06/30 09:59:59;;;;;;;4.95;3.78;;;;;;;26.46;63.33;99023.59;5090540;28;20032;-79
2023/06/30 10:02:25;;;;;;;6.07;3.42;;;;;;;26.24;63.71;99012.84;5090729;28;20032;-79
2023/06/30 10:04:50;;;;;;;7.95;4.20;;;;;;;26.13;64.04;99018.69;5090304;28;20506;-79
2023/06/30 10:07:16;;;;;;;5.57;3.80;;;;;;;25.82;64.86;98993.03;5090372;28;20040;-79
2023/06/30 10:09:44;;;;;;;6.38;4.03;;;;;;;25.78;65.79;99010.44;5090541;28;20032;-79
2023/06/30 10:12:13;;;;;;;7.28;3.72;;;;;;;25.62;66.89;98976.75;5090273;28;20316;-79
2023/06/30 10:14:40;;;;;;;6.43;4.05;;;;;;;25.72;67.85;98999.66;5090344;28;20411;-79
2023/06/30 10:17:06;;;;;;;4.32;3.90;;;;;;;25.85;67.92;99038.03;5090178;28;20028;-79
2023/06/30 10:19:32;;;;;;;6.22;4.05;;;;;;;25.62;68.41;99005.28;5090434;28;20459;-79
2023/06/30 10:21:58;;;;;;;4.30;3.60;;;;;;;25.83;68.84;99031.22;5090169;28;20399;-79
2023/06/30 10:24:26;;;;;;;7.40;4.25;;;;;;;25.39;68.74;98960.00;5091017;28;20552;-79
2023/06/30 10:26:54;;;;;;;4.78;3.88;;;;;;;25.74;68.94;99011.78;5092831;28;20081;-79
2023/06/30 10:29:20;;;;;;;5.13;3.50;;;;;;;25.85;69.14;99023.88;5092556;28;20198;-79
2023/06/30 10:31:46;;;;;;;8.68;3.60;;;;;;;25.70;69.05;98996.31;5092525;28;20103;-79
2023/06/30 10:34:12;;;;;;;4.10;3.70;;;;;;;25.86;69.01;99012.19;5092516;28;20064;-79
2023/06/30 10:36:39;;;;;;;4.22;3.80;;;;;;;25.80;68.92;98989.75;5092393;28;20090;-79
2023/06/30 10:39:06;;;;;;;5.30;3.53;;;;;;;26.03;68.60;99015.47;5092723;28;20036;-79
2023/06/30 10:41:44;;;;;;;4.75;3.00;;;;;;;26.06;68.76;98999.91;5092516;28;20035;-79
2023/06/30 10:44:10;;;;;;;8.05;4.13;;;;;;;26.12;68.33;98993.84;5092670;28;20424;-79
2023/06/30 10:46:48;;;;;;;4.28;3.33;;;;;;;26.40;67.53;99016.31;5092452;28;20059;-79
2023/06/30 10:49:17;;;;;;;6.60;3.60;;;;;;;26.54;67.89;99012.78;5091899;28;20024;-79
2023/06/30 10:51:49;;;;;;;6.15;3.75;;;;;;;26.55;66.67;98979.75;5092695;28;20024;-79
2023/06/30 10:54:25;;;;;;;6.80;3.90;;;;;;;26.72;64.98;99001.69;5092409;28;20445;-79
2023/06/30 10:56:52;;;;;;;7.47;3.47;;;;;;;26.78;65.25;99011.59;5092169;28;20119;-79
2023/06/30 10:59:21;;;;;;;4.05;3.33;;;;;;;26.88;65.14;99004.09;5091951;28;20032;-79
2023/06/30 11:02:08;;;;;;;9.15;4.35;;;;;;;26.92;62.84;99001.84;5092205;28;20491;-79
2023/06/30 11:04:39;;;;;;;3.75;2.97;;;;;;;26.61;62.29;98954.94;5092698;28;20020;-79
2023/06/30 11:07:06;;;;;;;5.40;3.40;;;;;;;26.84;62.66;98982.28;5092492;28;20027;-79
2023/06/30 11:09:46;;;;;;;5.00;3.38;;;;;;;27.13;62.48;98999.19;5092231;28;20032;-79
2023/06/30 11:12:23;;;;;;;3.88;3.20;;;;;;;27.25;62.32;98994.97;5092005;28;20479;-79
2023/06/30 11:15:02;;;;;;;9.70;4.32;;;;;;;27.31;62.23;98999.53;5092593;28;20090;-79
2023/06/30 11:17:48;;;;;;;8.32;4.78;;;;;;;27.35;63.04;98997.31;5092349;28;20039;-79
2023/06/30 11:20:13;;;;;;;4.05;3.33;;;;;;;27.42;62.10;98994.66;5091804;28;20499;-79
2023/06/30 11:22:40;;;;;;;3.75;3.10;;;;;;;27.26;60.51;98977.91;5091978;28;20043;-79
2023/06/30 11:25:09;;;;;;;5.82;3.40;;;;;;;27.23;60.78;98998.88;5092203;28;20077;-79
2023/06/30 11:27:35;;;;;;;6.93;3.17;;;;;;;26.99;61.13;98970.69;5092415;28;20387;-79
2023/06/30 11:30:01;;;;;;;3.85;3.28;;;;;;;26.95;62.27;98978.25;5091953;28;20035;-79
2023/06/30 11:32:27;;;;;;;6.22;3.63;;;;;;;27.05;62.98;98983.25;5091899;28;20028;-79
2023/06/30 11:34:55;;;;;;;6.40;3.78;;;;;;;26.91;64.21;98971.63;5091815;28;20471;-79
2023/06/30 11:37:20;;;;;;;5.72;3.22;;;;;;;26.86;65.40;98958.84;5092059;28;20086;-79
2023/06/30 11:39:57;;;;;;;4.10;3.70;;;;;;;27.05;64.11;98984.09;5095651;28;20426;-79
2023/06/30 11:42:23;;;;;;;4.57;3.20;;;;;;;27.02;63.50;98976.47;5095368;28;20456;-79